Ada, Michigan
Current Conditions -  °F | °C
As of 7:53 AM on Saturday 01 Nov 2014 (Local Time) from KGRR Reporting Station
Few Clouds Few Clouds  
Wind Chill: 18°   Ceiling: Unl
Heat Index: 26°   Visibility: 10mi
Dew Point: 17°   Wind: 8mph
Humidity: 69%   Direction: 360°N
Pressure: 30.38"   Gusts: NA
Location:  42.95°N, 85.49°W
Report Text: KGRR 011153Z 36007KT 10SM FEW028 M03/M08 A3038 RMK AO2 SLP298 70011 T10331083 10000 21033 51022
Loading
Personal Weather Stations






























Interactive Weather Map
Tropical Storm Tracking
New forecast layout! Learn more

10-Day Weather Forecast

Advertisements
Track Severe Weather on mobile